sensor_id;sensor_type;location;lat;lon;timestamp;pressure;altitude;pressure_sealevel;temperature
74374;BMP180;62809;51.090;-115.358;2022-10-17T00:01:13;87512.80;;;22.92
74374;BMP180;62809;51.090;-115.358;2022-10-17T00:03:40;87512.80;;;22.94
74374;BMP180;62809;51.090;-115.358;2022-10-17T00:06:14;87516.00;;;22.90
74374;BMP180;62809;51.090;-115.358;2022-10-17T00:08:43;87515.40;;;22.90
74374;BMP180;62809;51.090;-115.358;2022-10-17T00:11:21;87514.00;;;22.90
74374;BMP180;62809;51.090;-115.358;2022-10-17T00:13:53;87517.20;;;22.90
74374;BMP180;62809;51.090;-115.358;2022-10-17T00:16:29;87517.00;;;22.90
74374;BMP180;62809;51.090;-115.358;2022-10-17T00:18:57;87517.40;;;22.90
74374;BMP180;62809;51.090;-115.358;2022-10-17T00:21:26;87518.80;;;22.90
74374;BMP180;62809;51.090;-115.358;2022-10-17T00:23:53;87518.80;;;22.90
74374;BMP180;62809;51.090;-115.358;2022-10-17T00:26:21;87511.80;;;22.90
74374;BMP180;62809;51.090;-115.358;2022-10-17T00:28:52;87514.40;;;22.90
74374;BMP180;62809;51.090;-115.358;2022-10-17T00:31:24;87512.80;;;22.90
74374;BMP180;62809;51.090;-115.358;2022-10-17T00:33:51;87520.40;;;22.90
74374;BMP180;62809;51.090;-115.358;2022-10-17T00:36:24;87517.20;;;22.90
74374;BMP180;62809;51.090;-115.358;2022-10-17T00:38:58;87517.40;;;22.90
74374;BMP180;62809;51.090;-115.358;2022-10-17T00:41:29;87514.40;;;22.88
74374;BMP180;62809;51.090;-115.358;2022-10-17T00:46:35;87516.60;;;22.80
74374;BMP180;62809;51.090;-115.358;2022-10-17T00:49:08;87507.20;;;22.80
74374;BMP180;62809;51.090;-115.358;2022-10-17T00:51:51;87510.20;;;22.80
74374;BMP180;62809;51.090;-115.358;2022-10-17T00:54:29;87508.20;;;22.80
74374;BMP180;62809;51.090;-115.358;2022-10-17T00:56:57;87516.80;;;22.80
74374;BMP180;62809;51.090;-115.358;2022-10-17T00:59:27;87513.40;;;22.80
74374;BMP180;62809;51.090;-115.358;2022-10-17T01:02:10;87517.60;;;22.80
74374;BMP180;62809;51.090;-115.358;2022-10-17T01:04:42;87513.40;;;22.80
74374;BMP180;62809;51.090;-115.358;2022-10-17T01:07:10;87520.60;;;22.80
74374;BMP180;62809;51.090;-115.358;2022-10-17T01:09:38;87521.80;;;22.80
74374;BMP180;62809;51.090;-115.358;2022-10-17T01:24:08;87531.40;;;22.80
74374;BMP180;62809;51.090;-115.358;2022-10-17T01:32:54;87536.80;;;22.80
74374;BMP180;62809;51.090;-115.358;2022-10-17T01:35:33;87539.60;;;22.80
74374;BMP180;62809;51.090;-115.358;2022-10-17T01:38:07;87542.40;;;22.80
74374;BMP180;62809;51.090;-115.358;2022-10-17T01:40:46;87544.60;;;22.80
74374;BMP180;62809;51.090;-115.358;2022-10-17T01:43:34;87543.40;;;22.76
74374;BMP180;62809;51.090;-115.358;2022-10-17T01:46:29;87540.60;;;22.78
74374;BMP180;62809;51.090;-115.358;2022-10-17T01:49:03;87548.00;;;22.80
74374;BMP180;62809;51.090;-115.358;2022-10-17T01:51:44;87549.20;;;22.74
74374;BMP180;62809;51.090;-115.358;2022-10-17T01:54:36;87547.80;;;22.78
74374;BMP180;62809;51.090;-115.358;2022-10-17T01:57:11;87549.40;;;22.80
74374;BMP180;62809;51.090;-115.358;2022-10-17T01:59:43;87550.40;;;22.80
74374;BMP180;62809;51.090;-115.358;2022-10-17T02:02:14;87554.40;;;22.78
74374;BMP180;62809;51.090;-115.358;2022-10-17T02:04:44;87546.60;;;22.74
74374;BMP180;62809;51.090;-115.358;2022-10-17T02:07:12;87554.00;;;22.70
74374;BMP180;62809;51.090;-115.358;2022-10-17T02:09:41;87553.20;;;22.70
74374;BMP180;62809;51.090;-115.358;2022-10-17T02:12:44;87549.60;;;22.70
74374;BMP180;62809;51.090;-115.358;2022-10-17T02:15:43;87554.80;;;22.70
74374;BMP180;62809;51.090;-115.358;2022-10-17T02:24:10;87554.40;;;22.62
74374;BMP180;62809;51.090;-115.358;2022-10-17T02:27:08;87554.00;;;22.60
74374;BMP180;62809;51.090;-115.358;2022-10-17T02:29:57;87555.40;;;22.60
74374;BMP180;62809;51.090;-115.358;2022-10-17T02:32:41;87557.40;;;22.60
74374;BMP180;62809;51.090;-115.358;2022-10-17T02:35:14;87560.80;;;22.60
74374;BMP180;62809;51.090;-115.358;2022-10-17T02:37:46;87560.20;;;22.60
74374;BMP180;62809;51.090;-115.358;2022-10-17T02:40:16;87557.20;;;22.50
74374;BMP180;62809;51.090;-115.358;2022-10-17T02:42:45;87557.00;;;22.50
74374;BMP180;62809;51.090;-115.358;2022-10-17T02:45:17;87558.20;;;22.50
74374;BMP180;62809;51.090;-115.358;2022-10-17T02:48:02;87560.60;;;22.50
74374;BMP180;62809;51.090;-115.358;2022-10-17T02:51:01;87560.80;;;22.50
74374;BMP180;62809;51.090;-115.358;2022-10-17T02:56:18;87560.40;;;22.50
74374;BMP180;62809;51.090;-115.358;2022-10-17T02:58:57;87564.40;;;22.50
74374;BMP180;62809;51.090;-115.358;2022-10-17T03:01:26;87560.00;;;22.46
74374;BMP180;62809;51.090;-115.358;2022-10-17T03:04:11;87560.60;;;22.42
74374;BMP180;62809;51.090;-115.358;2022-10-17T03:06:40;87562.60;;;22.40
74374;BMP180;62809;51.090;-115.358;2022-10-17T03:09:08;87561.20;;;22.40
74374;BMP180;62809;51.090;-115.358;2022-10-17T03:11:35;87564.60;;;22.40
74374;BMP180;62809;51.090;-115.358;2022-10-17T03:14:02;87566.20;;;22.40
74374;BMP180;62809;51.090;-115.358;2022-10-17T03:16:32;87564.60;;;22.40
74374;BMP180;62809;51.090;-115.358;2022-10-17T03:19:03;87567.20;;;22.40
74374;BMP180;62809;51.090;-115.358;2022-10-17T03:21:31;87563.80;;;22.40
74374;BMP180;62809;51.090;-115.358;2022-10-17T03:23:58;87564.60;;;22.40
74374;BMP180;62809;51.090;-115.358;2022-10-17T03:26:28;87566.60;;;22.34
74374;BMP180;62809;51.090;-115.358;2022-10-17T03:28:57;87562.40;;;22.32
74374;BMP180;62809;51.090;-115.358;2022-10-17T03:31:27;87567.40;;;22.30
74374;BMP180;62809;51.090;-115.358;2022-10-17T03:33:54;87567.60;;;22.30
74374;BMP180;62809;51.090;-115.358;2022-10-17T03:36:23;87568.40;;;22.30
74374;BMP180;62809;51.090;-115.358;2022-10-17T03:38:53;87566.60;;;22.30
74374;BMP180;62809;51.090;-115.358;2022-10-17T03:41:23;87568.60;;;22.30
74374;BMP180;62809;51.090;-115.358;2022-10-17T03:43:52;87567.60;;;22.30
74374;BMP180;62809;51.090;-115.358;2022-10-17T03:46:21;87567.60;;;22.30
74374;BMP180;62809;51.090;-115.358;2022-10-17T03:48:49;87562.00;;;22.30
74374;BMP180;62809;51.090;-115.358;2022-10-17T03:51:17;87562.20;;;22.24
74374;BMP180;62809;51.090;-115.358;2022-10-17T03:53:44;87566.40;;;22.20
74374;BMP180;62809;51.090;-115.358;2022-10-17T03:56:22;87566.80;;;22.20
74374;BMP180;62809;51.090;-115.358;2022-10-17T03:58:50;87573.60;;;22.24
74374;BMP180;62809;51.090;-115.358;2022-10-17T04:01:19;87573.00;;;22.20
74374;BMP180;62809;51.090;-115.358;2022-10-17T04:03:51;87574.80;;;22.20
74374;BMP180;62809;51.090;-115.358;2022-10-17T04:06:21;87571.40;;;22.20
74374;BMP180;62809;51.090;-115.358;2022-10-17T04:08:49;87578.20;;;22.20
74374;BMP180;62809;51.090;-115.358;2022-10-17T04:11:20;87578.60;;;22.20
74374;BMP180;62809;51.090;-115.358;2022-10-17T04:13:52;87581.40;;;22.20
74374;BMP180;62809;51.090;-115.358;2022-10-17T04:16:21;87579.40;;;22.20
74374;BMP180;62809;51.090;-115.358;2022-10-17T04:18:55;87582.20;;;22.20
74374;BMP180;62809;51.090;-115.358;2022-10-17T04:21:24;87581.80;;;22.12
74374;BMP180;62809;51.090;-115.358;2022-10-17T04:23:59;87580.00;;;22.10
74374;BMP180;62809;51.090;-115.358;2022-10-17T04:26:27;87582.60;;;22.10
74374;BMP180;62809;51.090;-115.358;2022-10-17T04:28:54;87582.80;;;22.10
74374;BMP180;62809;51.090;-115.358;2022-10-17T04:31:23;87585.60;;;22.10
74374;BMP180;62809;51.090;-115.358;2022-10-17T04:33:50;87581.00;;;22.10
74374;BMP180;62809;51.090;-115.358;2022-10-17T04:36:19;87583.20;;;22.10
74374;BMP180;62809;51.090;-115.358;2022-10-17T04:38:48;87585.80;;;22.10
74374;BMP180;62809;51.090;-115.358;2022-10-17T04:41:17;87583.20;;;22.10
74374;BMP180;62809;51.090;-115.358;2022-10-17T04:43:46;87583.40;;;22.02
74374;BMP180;62809;51.090;-115.358;2022-10-17T04:46:15;87587.80;;;22.00
74374;BMP180;62809;51.090;-115.358;2022-10-17T04:48:42;87589.20;;;22.00
74374;BMP180;62809;51.090;-115.358;2022-10-17T04:51:15;87588.80;;;22.00
74374;BMP180;62809;51.090;-115.358;2022-10-17T04:53:43;87594.00;;;22.00
74374;BMP180;62809;51.090;-115.358;2022-10-17T04:56:16;87592.60;;;22.00
74374;BMP180;62809;51.090;-115.358;2022-10-17T04:58:45;87590.60;;;22.00
74374;BMP180;62809;51.090;-115.358;2022-10-17T05:01:17;87588.40;;;22.00
74374;BMP180;62809;51.090;-115.358;2022-10-17T05:03:45;87587.20;;;21.90
74374;BMP180;62809;51.090;-115.358;2022-10-17T05:06:17;87584.60;;;21.90
74374;BMP180;62809;51.090;-115.358;2022-10-17T05:08:46;87587.20;;;21.90
74374;BMP180;62809;51.090;-115.358;2022-10-17T05:11:20;87582.80;;;21.90
74374;BMP180;62809;51.090;-115.358;2022-10-17T05:13:57;87585.20;;;21.90
74374;BMP180;62809;51.090;-115.358;2022-10-17T05:16:27;87587.00;;;21.90
74374;BMP180;62809;51.090;-115.358;2022-10-17T05:18:57;87587.40;;;21.90
74374;BMP180;62809;51.090;-115.358;2022-10-17T05:21:26;87579.80;;;21.90
74374;BMP180;62809;51.090;-115.358;2022-10-17T05:23:54;87582.00;;;21.82
74374;BMP180;62809;51.090;-115.358;2022-10-17T05:26:22;87578.80;;;21.80
74374;BMP180;62809;51.090;-115.358;2022-10-17T05:28:53;87582.80;;;21.80
74374;BMP180;62809;51.090;-115.358;2022-10-17T05:31:20;87588.20;;;21.80
74374;BMP180;62809;51.090;-115.358;2022-10-17T05:33:47;87585.40;;;21.80
74374;BMP180;62809;51.090;-115.358;2022-10-17T05:36:17;87585.00;;;21.80
74374;BMP180;62809;51.090;-115.358;2022-10-17T05:38:49;87589.00;;;21.78
74374;BMP180;62809;51.090;-115.358;2022-10-17T05:41:18;87585.20;;;21.80
74374;BMP180;62809;51.090;-115.358;2022-10-17T05:43:46;87588.00;;;21.80
74374;BMP180;62809;51.090;-115.358;2022-10-17T05:46:13;87590.40;;;21.80
74374;BMP180;62809;51.090;-115.358;2022-10-17T05:48:41;87591.00;;;21.78
74374;BMP180;62809;51.090;-115.358;2022-10-17T05:51:09;87590.60;;;21.72
74374;BMP180;62809;51.090;-115.358;2022-10-17T05:53:39;87589.80;;;21.70
74374;BMP180;62809;51.090;-115.358;2022-10-17T05:56:09;87589.20;;;21.70
74374;BMP180;62809;51.090;-115.358;2022-10-17T05:58:44;87589.00;;;21.70
74374;BMP180;62809;51.090;-115.358;2022-10-17T06:01:12;87589.60;;;21.70
74374;BMP180;62809;51.090;-115.358;2022-10-17T06:03:41;87593.60;;;21.70
74374;BMP180;62809;51.090;-115.358;2022-10-17T06:06:13;87597.40;;;21.70
74374;BMP180;62809;51.090;-115.358;2022-10-17T06:08:42;87598.40;;;21.70
74374;BMP180;62809;51.090;-115.358;2022-10-17T06:11:11;87596.60;;;21.70
74374;BMP180;62809;51.090;-115.358;2022-10-17T06:13:39;87598.00;;;21.70
74374;BMP180;62809;51.090;-115.358;2022-10-17T06:16:06;87592.80;;;21.70
74374;BMP180;62809;51.090;-115.358;2022-10-17T06:18:34;87589.40;;;21.62
74374;BMP180;62809;51.090;-115.358;2022-10-17T06:21:08;87593.60;;;21.60
74374;BMP180;62809;51.090;-115.358;2022-10-17T06:23:38;87592.20;;;21.60
74374;BMP180;62809;51.090;-115.358;2022-10-17T06:26:06;87594.80;;;21.60
74374;BMP180;62809;51.090;-115.358;2022-10-17T06:28:35;87584.80;;;21.60
74374;BMP180;62809;51.090;-115.358;2022-10-17T06:31:09;87589.00;;;21.60
74374;BMP180;62809;51.090;-115.358;2022-10-17T06:33:38;87588.00;;;21.60
74374;BMP180;62809;51.090;-115.358;2022-10-17T06:36:11;87591.40;;;21.52
74374;BMP180;62809;51.090;-115.358;2022-10-17T06:38:40;87595.20;;;21.52
74374;BMP180;62809;51.090;-115.358;2022-10-17T06:41:13;87592.20;;;21.50
74374;BMP180;62809;51.090;-115.358;2022-10-17T06:43:43;87591.20;;;21.50
74374;BMP180;62809;51.090;-115.358;2022-10-17T06:46:15;87589.80;;;21.50
74374;BMP180;62809;51.090;-115.358;2022-10-17T06:48:44;87590.40;;;21.50
74374;BMP180;62809;51.090;-115.358;2022-10-17T06:51:13;87591.60;;;21.50
74374;BMP180;62809;51.090;-115.358;2022-10-17T06:53:40;87589.80;;;21.50
74374;BMP180;62809;51.090;-115.358;2022-10-17T06:56:08;87592.60;;;21.50
74374;BMP180;62809;51.090;-115.358;2022-10-17T06:58:39;87594.00;;;21.50
74374;BMP180;62809;51.090;-115.358;2022-10-17T07:01:10;87597.60;;;21.50
74374;BMP180;62809;51.090;-115.358;2022-10-17T07:03:38;87595.80;;;21.50
74374;BMP180;62809;51.090;-115.358;2022-10-17T07:06:06;87596.80;;;21.50
74374;BMP180;62809;51.090;-115.358;2022-10-17T07:08:33;87600.00;;;21.50
74374;BMP180;62809;51.090;-115.358;2022-10-17T07:11:13;87597.80;;;21.48
74374;BMP180;62809;51.090;-115.358;2022-10-17T07:13:41;87594.00;;;21.48
74374;BMP180;62809;51.090;-115.358;2022-10-17T07:16:08;87595.60;;;21.40
74374;BMP180;62809;51.090;-115.358;2022-10-17T07:18:39;87592.60;;;21.40
74374;BMP180;62809;51.090;-115.358;2022-10-17T07:21:09;87597.60;;;21.40
74374;BMP180;62809;51.090;-115.358;2022-10-17T07:23:36;87593.20;;;21.40
74374;BMP180;62809;51.090;-115.358;2022-10-17T07:26:10;87596.00;;;21.40
74374;BMP180;62809;51.090;-115.358;2022-10-17T07:28:42;87595.80;;;21.40
74374;BMP180;62809;51.090;-115.358;2022-10-17T07:31:13;87604.60;;;21.40
74374;BMP180;62809;51.090;-115.358;2022-10-17T07:33:42;87606.40;;;21.40
74374;BMP180;62809;51.090;-115.358;2022-10-17T07:36:11;87605.80;;;21.36
74374;BMP180;62809;51.090;-115.358;2022-10-17T07:38:45;87611.80;;;21.32
74374;BMP180;62809;51.090;-115.358;2022-10-17T07:41:12;87608.20;;;21.34
74374;BMP180;62809;51.090;-115.358;2022-10-17T07:43:40;87610.20;;;21.32
74374;BMP180;62809;51.090;-115.358;2022-10-17T07:46:09;87611.00;;;21.30
74374;BMP180;62809;51.090;-115.358;2022-10-17T07:48:38;87615.00;;;21.30
74374;BMP180;62809;51.090;-115.358;2022-10-17T07:51:08;87612.00;;;21.30
74374;BMP180;62809;51.090;-115.358;2022-10-17T07:53:38;87616.20;;;21.30
74374;BMP180;62809;51.090;-115.358;2022-10-17T07:56:07;87613.00;;;21.30
74374;BMP180;62809;51.090;-115.358;2022-10-17T07:58:36;87613.40;;;21.30
74374;BMP180;62809;51.090;-115.358;2022-10-17T08:01:06;87609.20;;;21.30
74374;BMP180;62809;51.090;-115.358;2022-10-17T08:03:36;87608.60;;;21.26
74374;BMP180;62809;51.090;-115.358;2022-10-17T08:06:04;87611.40;;;21.24
74374;BMP180;62809;51.090;-115.358;2022-10-17T08:08:32;87610.60;;;21.20
74374;BMP180;62809;51.090;-115.358;2022-10-17T08:11:05;87610.40;;;21.20
74374;BMP180;62809;51.090;-115.358;2022-10-17T08:13:35;87612.20;;;21.20
74374;BMP180;62809;51.090;-115.358;2022-10-17T08:16:08;87611.80;;;21.20
74374;BMP180;62809;51.090;-115.358;2022-10-17T08:18:38;87611.20;;;21.20
74374;BMP180;62809;51.090;-115.358;2022-10-17T08:21:08;87609.80;;;21.14
74374;BMP180;62809;51.090;-115.358;2022-10-17T08:23:36;87615.20;;;21.10
74374;BMP180;62809;51.090;-115.358;2022-10-17T08:26:07;87620.80;;;21.10
74374;BMP180;62809;51.090;-115.358;2022-10-17T08:28:39;87619.80;;;21.10
74374;BMP180;62809;51.090;-115.358;2022-10-17T08:31:11;87617.80;;;21.10
74374;BMP180;62809;51.090;-115.358;2022-10-17T08:33:40;87619.20;;;21.10
74374;BMP180;62809;51.090;-115.358;2022-10-17T08:36:13;87617.40;;;21.10
74374;BMP180;62809;51.090;-115.358;2022-10-17T08:38:42;87620.20;;;21.10
74374;BMP180;62809;51.090;-115.358;2022-10-17T08:47:04;87616.00;;;21.08
74374;BMP180;62809;51.090;-115.358;2022-10-17T08:49:55;87619.60;;;21.00
74374;BMP180;62809;51.090;-115.358;2022-10-17T08:52:35;87612.80;;;21.00
74374;BMP180;62809;51.090;-115.358;2022-10-17T08:55:14;87607.40;;;21.00
74374;BMP180;62809;51.090;-115.358;2022-10-17T08:57:44;87606.80;;;21.00
74374;BMP180;62809;51.090;-115.358;2022-10-17T09:00:19;87608.60;;;21.00
74374;BMP180;62809;51.090;-115.358;2022-10-17T09:03:10;87608.80;;;21.00
74374;BMP180;62809;51.090;-115.358;2022-10-17T09:05:55;87605.40;;;21.00
74374;BMP180;62809;51.090;-115.358;2022-10-17T09:08:56;87608.80;;;20.98
74374;BMP180;62809;51.090;-115.358;2022-10-17T09:11:47;87608.00;;;20.92
74374;BMP180;62809;51.090;-115.358;2022-10-17T09:14:47;87605.40;;;20.90
74374;BMP180;62809;51.090;-115.358;2022-10-17T09:20:32;87605.40;;;20.90
74374;BMP180;62809;51.090;-115.358;2022-10-17T09:23:21;87606.40;;;20.90
74374;BMP180;62809;51.090;-115.358;2022-10-17T09:25:54;87610.60;;;20.88
74374;BMP180;62809;51.090;-115.358;2022-10-17T09:28:30;87610.00;;;20.86
74374;BMP180;62809;51.090;-115.358;2022-10-17T09:33:41;87599.80;;;20.80
74374;BMP180;62809;51.090;-115.358;2022-10-17T09:36:17;87601.40;;;20.80
74374;BMP180;62809;51.090;-115.358;2022-10-17T09:38:54;87602.40;;;20.80
74374;BMP180;62809;51.090;-115.358;2022-10-17T09:41:39;87604.20;;;20.80
74374;BMP180;62809;51.090;-115.358;2022-10-17T09:44:19;87603.80;;;20.80
74374;BMP180;62809;51.090;-115.358;2022-10-17T09:49:53;87603.40;;;20.80
74374;BMP180;62809;51.090;-115.358;2022-10-17T09:52:34;87607.60;;;20.74
74374;BMP180;62809;51.090;-115.358;2022-10-17T09:55:25;87606.20;;;20.70
74374;BMP180;62809;51.090;-115.358;2022-10-17T09:57:58;87608.60;;;20.70
74374;BMP180;62809;51.090;-115.358;2022-10-17T10:06:13;87598.00;;;20.70
74374;BMP180;62809;51.090;-115.358;2022-10-17T10:11:24;87604.40;;;20.60
74374;BMP180;62809;51.090;-115.358;2022-10-17T10:13:52;87602.20;;;20.60
74374;BMP180;62809;51.090;-115.358;2022-10-17T10:16:33;87602.80;;;20.60
74374;BMP180;62809;51.090;-115.358;2022-10-17T10:22:02;87599.40;;;20.60
74374;BMP180;62809;51.090;-115.358;2022-10-17T10:24:30;87601.20;;;20.60
74374;BMP180;62809;51.090;-115.358;2022-10-17T10:27:02;87596.00;;;20.60
74374;BMP180;62809;51.090;-115.358;2022-10-17T10:29:39;87599.20;;;20.60
74374;BMP180;62809;51.090;-115.358;2022-10-17T10:32:21;87604.40;;;20.60
74374;BMP180;62809;51.090;-115.358;2022-10-17T10:35:05;87604.00;;;20.60
74374;BMP180;62809;51.090;-115.358;2022-10-17T10:37:42;87609.60;;;20.60
74374;BMP180;62809;51.090;-115.358;2022-10-17T10:42:58;87610.40;;;20.60
74374;BMP180;62809;51.090;-115.358;2022-10-17T10:48:22;87604.60;;;20.58
74374;BMP180;62809;51.090;-115.358;2022-10-17T10:51:03;87612.20;;;20.50
74374;BMP180;62809;51.090;-115.358;2022-10-17T10:53:47;87608.40;;;20.50
74374;BMP180;62809;51.090;-115.358;2022-10-17T11:02:10;87600.40;;;20.50
74374;BMP180;62809;51.090;-115.358;2022-10-17T11:07:50;87601.40;;;20.40
74374;BMP180;62809;51.090;-115.358;2022-10-17T11:19:48;87597.40;;;20.40
74374;BMP180;62809;51.090;-115.358;2022-10-17T11:25:05;87597.20;;;20.40
74374;BMP180;62809;51.090;-115.358;2022-10-17T11:27:39;87598.40;;;20.38
74374;BMP180;62809;51.090;-115.358;2022-10-17T11:30:13;87592.80;;;20.30
74374;BMP180;62809;51.090;-115.358;2022-10-17T11:32:46;87598.60;;;20.30
74374;BMP180;62809;51.090;-115.358;2022-10-17T11:35:34;87598.00;;;20.30
74374;BMP180;62809;51.090;-115.358;2022-10-17T11:38:23;87600.00;;;20.30
74374;BMP180;62809;51.090;-115.358;2022-10-17T11:40:58;87597.20;;;20.30
74374;BMP180;62809;51.090;-115.358;2022-10-17T11:43:39;87598.40;;;20.30
74374;BMP180;62809;51.090;-115.358;2022-10-17T11:46:23;87603.00;;;20.30
74374;BMP180;62809;51.090;-115.358;2022-10-17T11:51:51;87594.60;;;20.22
74374;BMP180;62809;51.090;-115.358;2022-10-17T12:12:00;87598.20;;;20.20
74374;BMP180;62809;51.090;-115.358;2022-10-17T12:14:45;87596.80;;;20.20
74374;BMP180;62809;51.090;-115.358;2022-10-17T12:17:34;87592.00;;;20.20
74374;BMP180;62809;51.090;-115.358;2022-10-17T12:20:27;87592.80;;;20.20
74374;BMP180;62809;51.090;-115.358;2022-10-17T12:28:41;87587.80;;;20.10
74374;BMP180;62809;51.090;-115.358;2022-10-17T12:36:43;87581.20;;;20.10
74374;BMP180;62809;51.090;-115.358;2022-10-17T12:49:46;87586.00;;;20.10
74374;BMP180;62809;51.090;-115.358;2022-10-17T12:58:02;87584.60;;;20.10
74374;BMP180;62809;51.090;-115.358;2022-10-17T13:00:55;87588.20;;;20.10
74374;BMP180;62809;51.090;-115.358;2022-10-17T13:03:31;87585.00;;;20.08
74374;BMP180;62809;51.090;-115.358;2022-10-17T13:06:03;87586.20;;;20.00
74374;BMP180;62809;51.090;-115.358;2022-10-17T13:08:38;87591.00;;;20.00
74374;BMP180;62809;51.090;-115.358;2022-10-17T13:11:07;87592.40;;;20.00
74374;BMP180;62809;51.090;-115.358;2022-10-17T13:13:47;87594.60;;;20.00
74374;BMP180;62809;51.090;-115.358;2022-10-17T13:16:36;87593.00;;;20.00
74374;BMP180;62809;51.090;-115.358;2022-10-17T13:19:15;87585.80;;;20.00
74374;BMP180;62809;51.090;-115.358;2022-10-17T13:21:54;87587.20;;;19.98
74374;BMP180;62809;51.090;-115.358;2022-10-17T13:26:56;87590.20;;;19.90
74374;BMP180;62809;51.090;-115.358;2022-10-17T13:29:25;87591.60;;;19.90
74374;BMP180;62809;51.090;-115.358;2022-10-17T13:32:03;87593.20;;;19.90
74374;BMP180;62809;51.090;-115.358;2022-10-17T13:34:34;87603.00;;;19.90
74374;BMP180;62809;51.090;-115.358;2022-10-17T13:37:05;87606.20;;;19.90
74374;BMP180;62809;51.090;-115.358;2022-10-17T13:39:42;87606.60;;;19.90
74374;BMP180;62809;51.090;-115.358;2022-10-17T13:42:28;87603.40;;;19.90
74374;BMP180;62809;51.090;-115.358;2022-10-17T13:44:58;87605.80;;;20.00
74374;BMP180;62809;51.090;-115.358;2022-10-17T13:47:35;87615.20;;;20.00
74374;BMP180;62809;51.090;-115.358;2022-10-17T13:50:05;87613.20;;;20.10
74374;BMP180;62809;51.090;-115.358;2022-10-17T13:52:33;87623.80;;;20.20
74374;BMP180;62809;51.090;-115.358;2022-10-17T13:55:17;87622.20;;;20.20
74374;BMP180;62809;51.090;-115.358;2022-10-17T13:57:47;87627.20;;;20.30
74374;BMP180;62809;51.090;-115.358;2022-10-17T14:00:21;87622.20;;;20.32
74374;BMP180;62809;51.090;-115.358;2022-10-17T14:02:48;87619.60;;;20.40
74374;BMP180;62809;51.090;-115.358;2022-10-17T14:05:19;87615.40;;;20.40
74374;BMP180;62809;51.090;-115.358;2022-10-17T14:08:03;87618.00;;;20.40
74374;BMP180;62809;51.090;-115.358;2022-10-17T14:10:36;87621.60;;;20.40
74374;BMP180;62809;51.090;-115.358;2022-10-17T14:13:06;87627.00;;;20.40
74374;BMP180;62809;51.090;-115.358;2022-10-17T14:15:35;87628.40;;;20.50
74374;BMP180;62809;51.090;-115.358;2022-10-17T14:18:13;87631.00;;;20.50
74374;BMP180;62809;51.090;-115.358;2022-10-17T14:20:50;87628.80;;;20.60
74374;BMP180;62809;51.090;-115.358;2022-10-17T14:23:38;87627.60;;;20.60
74374;BMP180;62809;51.090;-115.358;2022-10-17T14:28:40;87637.20;;;20.70
74374;BMP180;62809;51.090;-115.358;2022-10-17T14:31:24;87628.60;;;20.70
74374;BMP180;62809;51.090;-115.358;2022-10-17T14:33:56;87637.20;;;20.70
74374;BMP180;62809;51.090;-115.358;2022-10-17T14:36:38;87635.00;;;20.70
74374;BMP180;62809;51.090;-115.358;2022-10-17T14:39:21;87638.20;;;20.70
74374;BMP180;62809;51.090;-115.358;2022-10-17T14:41:51;87640.60;;;20.70
74374;BMP180;62809;51.090;-115.358;2022-10-17T14:44:25;87640.80;;;20.70
74374;BMP180;62809;51.090;-115.358;2022-10-17T14:47:01;87646.00;;;20.70
74374;BMP180;62809;51.090;-115.358;2022-10-17T14:49:39;87644.40;;;20.80
74374;BMP180;62809;51.090;-115.358;2022-10-17T14:54:37;87642.80;;;20.80
74374;BMP180;62809;51.090;-115.358;2022-10-17T14:57:23;87645.00;;;20.86
74374;BMP180;62809;51.090;-115.358;2022-10-17T14:59:53;87644.80;;;20.90
74374;BMP180;62809;51.090;-115.358;2022-10-17T15:02:20;87648.40;;;20.88
74374;BMP180;62809;51.090;-115.358;2022-10-17T15:04:48;87647.40;;;20.84
74374;BMP180;62809;51.090;-115.358;2022-10-17T15:07:18;87650.80;;;20.80
74374;BMP180;62809;51.090;-115.358;2022-10-17T15:09:50;87651.80;;;20.80
74374;BMP180;62809;51.090;-115.358;2022-10-17T15:12:23;87648.60;;;20.82
74374;BMP180;62809;51.090;-115.358;2022-10-17T15:14:53;87647.20;;;20.84
74374;BMP180;62809;51.090;-115.358;2022-10-17T15:17:28;87646.60;;;20.86
74374;BMP180;62809;51.090;-115.358;2022-10-17T15:19:57;87647.00;;;20.90
74374;BMP180;62809;51.090;-115.358;2022-10-17T15:22:25;87654.00;;;20.84
74374;BMP180;62809;51.090;-115.358;2022-10-17T15:24:52;87654.20;;;20.88
74374;BMP180;62809;51.090;-115.358;2022-10-17T15:27:22;87654.00;;;20.90
74374;BMP180;62809;51.090;-115.358;2022-10-17T15:29:51;87648.60;;;20.90
74374;BMP180;62809;51.090;-115.358;2022-10-17T15:32:18;87652.20;;;20.90
74374;BMP180;62809;51.090;-115.358;2022-10-17T15:34:45;87651.20;;;20.90
74374;BMP180;62809;51.090;-115.358;2022-10-17T15:37:22;87650.80;;;20.94
74374;BMP180;62809;51.090;-115.358;2022-10-17T15:39:53;87649.80;;;21.00
74374;BMP180;62809;51.090;-115.358;2022-10-17T15:42:28;87653.60;;;21.10
74374;BMP180;62809;51.090;-115.358;2022-10-17T15:44:57;87653.40;;;21.10
74374;BMP180;62809;51.090;-115.358;2022-10-17T15:47:27;87653.60;;;21.10
74374;BMP180;62809;51.090;-115.358;2022-10-17T15:49:56;87657.40;;;21.16
74374;BMP180;62809;51.090;-115.358;2022-10-17T15:52:24;87652.60;;;21.18
74374;BMP180;62809;51.090;-115.358;2022-10-17T15:54:53;87652.00;;;21.20
74374;BMP180;62809;51.090;-115.358;2022-10-17T15:57:27;87650.60;;;21.20
74374;BMP180;62809;51.090;-115.358;2022-10-17T16:00:00;87650.80;;;21.18
74374;BMP180;62809;51.090;-115.358;2022-10-17T16:02:30;87659.80;;;21.14
74374;BMP180;62809;51.090;-115.358;2022-10-17T16:05:04;87653.80;;;21.14
74374;BMP180;62809;51.090;-115.358;2022-10-17T16:07:32;87657.40;;;21.12
74374;BMP180;62809;51.090;-115.358;2022-10-17T16:09:59;87655.40;;;21.20
74374;BMP180;62809;51.090;-115.358;2022-10-17T16:12:28;87648.80;;;21.20
74374;BMP180;62809;51.090;-115.358;2022-10-17T16:14:56;87654.40;;;21.20
74374;BMP180;62809;51.090;-115.358;2022-10-17T16:17:24;87652.40;;;21.20
74374;BMP180;62809;51.090;-115.358;2022-10-17T16:19:53;87646.20;;;21.20
74374;BMP180;62809;51.090;-115.358;2022-10-17T16:22:29;87642.20;;;21.20